createdAt,value
2022-09-16T00:00:02.185Z,17.40
2022-09-16T00:05:08.589Z,17.30
2022-09-16T00:10:11.458Z,17.30
2022-09-16T00:15:14.394Z,17.30
2022-09-16T00:20:17.225Z,17.40
2022-09-16T00:25:19.815Z,15.80
2022-09-16T00:30:22.460Z,17.30
2022-09-16T00:35:25.067Z,17.00
2022-09-16T00:40:28.145Z,17.00
2022-09-16T00:45:31.941Z,17.20
2022-09-16T00:51:01.901Z,17.10
2022-09-16T00:56:09.590Z,17.20
2022-09-16T01:01:12.190Z,17.30
2022-09-16T01:06:17.967Z,17.30
2022-09-16T01:11:20.605Z,17.10
2022-09-16T01:16:25.939Z,17.10
2022-09-16T01:21:40.048Z,16.90
2022-09-16T01:27:08.725Z,17.00
2022-09-16T01:32:58.705Z,16.90
2022-09-16T01:38:09.828Z,16.70
2022-09-16T01:43:15.108Z,16.80
2022-09-16T01:48:29.325Z,16.80
2022-09-16T01:53:57.200Z,16.90
2022-09-16T01:59:04.997Z,16.90
2022-09-16T02:04:14.775Z,16.80
2022-09-16T02:09:25.410Z,16.50
2022-09-16T02:14:31.922Z,16.60
2022-09-16T02:19:43.018Z,16.50
2022-09-16T02:24:47.742Z,16.60
2022-09-16T02:29:57.725Z,16.40
2022-09-16T02:35:02.154Z,16.50
2022-09-16T02:40:12.043Z,16.40
2022-09-16T02:45:14.777Z,16.10
2022-09-16T02:50:32.785Z,16.10
2022-09-16T02:55:49.826Z,16.10
2022-09-16T03:00:55.252Z,16.10
2022-09-16T03:06:15.218Z,16.00
2022-09-16T03:11:35.956Z,15.80
2022-09-16T03:17:05.087Z,16.00
2022-09-16T03:22:30.784Z,15.90
2022-09-16T03:27:42.642Z,15.90
2022-09-16T03:32:52.029Z,15.90
2022-09-16T03:37:59.323Z,15.90
2022-09-16T03:43:11.621Z,15.90
2022-09-16T03:48:14.327Z,15.70
2022-09-16T03:53:16.886Z,15.80
2022-09-16T03:58:19.485Z,15.80
2022-09-16T04:03:22.081Z,15.80
2022-09-16T04:08:24.616Z,15.90
2022-09-16T04:13:29.450Z,15.90
2022-09-16T04:18:32.879Z,15.90
2022-09-16T04:23:35.653Z,15.30
2022-09-16T04:28:38.351Z,16.00
2022-09-16T04:33:41.730Z,16.00
2022-09-16T04:38:45.582Z,15.70
2022-09-16T04:43:52.921Z,15.70
2022-09-16T04:48:56.885Z,15.60
2022-09-16T04:54:01.482Z,15.60
2022-09-16T04:59:06.016Z,15.30
2022-09-16T05:04:09.950Z,15.20
2022-09-16T05:09:13.567Z,15.30
2022-09-16T05:14:18.243Z,15.30
2022-09-16T05:19:20.770Z,15.30
2022-09-16T05:24:23.454Z,15.20
2022-09-16T05:29:26.057Z,15.20
2022-09-16T05:34:28.773Z,15.20
2022-09-16T05:39:31.434Z,15.00
2022-09-16T05:44:33.947Z,15.00
2022-09-16T05:49:37.050Z,15.20
2022-09-16T05:54:39.578Z,14.80
2022-09-16T05:59:42.207Z,14.90
2022-09-16T06:04:44.743Z,14.90
2022-09-16T06:09:47.482Z,14.80
2022-09-16T06:14:50.092Z,14.80
2022-09-16T06:19:52.609Z,14.90
2022-09-16T06:24:55.263Z,14.90
2022-09-16T06:29:57.818Z,14.90
2022-09-16T06:35:00.479Z,15.00
2022-09-16T06:40:03.265Z,14.90
2022-09-16T06:45:06.588Z,15.00
2022-09-16T06:50:09.595Z,15.20
2022-09-16T06:55:12.571Z,15.10
2022-09-16T07:00:15.489Z,15.10
2022-09-16T07:05:18.082Z,15.20
2022-09-16T07:10:25.244Z,15.10
2022-09-16T07:15:27.809Z,15.10
2022-09-16T07:20:30.980Z,15.10
2022-09-16T07:25:35.870Z,15.30
2022-09-16T07:30:38.647Z,15.30
2022-09-16T07:35:41.299Z,15.50
2022-09-16T07:40:43.935Z,15.50
2022-09-16T07:45:46.723Z,15.40
2022-09-16T07:51:00.800Z,15.50
2022-09-16T07:56:15.095Z,15.50
2022-09-16T08:01:18.315Z,15.60
2022-09-16T08:11:27.657Z,15.80
2022-09-16T08:16:30.344Z,15.70
2022-09-16T08:21:32.878Z,15.70
2022-09-16T08:26:35.902Z,15.90
2022-09-16T08:31:38.867Z,16.20
2022-09-16T08:36:41.550Z,16.30
2022-09-16T08:41:55.124Z,16.30
2022-09-16T08:47:35.244Z,16.20
2022-09-16T08:52:39.410Z,16.20
2022-09-16T08:58:10.654Z,16.40
2022-09-16T09:03:16.297Z,16.50
2022-09-16T09:08:28.213Z,16.30
2022-09-16T09:13:58.113Z,16.30
2022-09-16T09:19:08.166Z,16.40
2022-09-16T09:24:43.815Z,16.70
2022-09-16T09:30:23.185Z,16.60
2022-09-16T09:35:53.648Z,16.90
2022-09-16T09:41:00.870Z,16.80
2022-09-16T09:46:25.006Z,16.70
2022-09-16T09:52:00.033Z,17.10
2022-09-16T09:57:19.204Z,17.00
2022-09-16T10:02:22.765Z,17.10
2022-09-16T10:07:26.951Z,17.00
2022-09-16T10:12:34.975Z,17.10
2022-09-16T10:17:37.735Z,17.10
2022-09-16T10:22:40.297Z,17.60
2022-09-16T10:27:42.980Z,17.60
2022-09-16T10:32:47.130Z,18.00
2022-09-16T10:37:56.163Z,17.80
2022-09-16T10:43:04.360Z,18.00
2022-09-16T10:48:13.933Z,18.20
2022-09-16T10:53:45.861Z,18.20
2022-09-16T10:58:48.716Z,18.60
2022-09-16T11:04:19.996Z,18.30
2022-09-16T11:10:04.081Z,18.00
2022-09-16T11:15:15.777Z,17.20
2022-09-16T11:20:44.421Z,17.00
2022-09-16T11:26:17.619Z,17.40
2022-09-16T11:31:57.955Z,17.50
2022-09-16T11:37:27.354Z,17.20
2022-09-16T11:42:37.130Z,16.60
2022-09-16T11:47:48.623Z,16.50
2022-09-16T11:53:05.374Z,16.60
2022-09-16T11:58:44.060Z,16.80
2022-09-16T12:03:54.744Z,16.90
2022-09-16T12:09:13.198Z,16.70
2022-09-16T12:14:20.303Z,16.60
2022-09-16T12:20:05.879Z,17.30
2022-09-16T12:25:27.098Z,16.60
2022-09-16T12:30:49.214Z,14.80
2022-09-16T12:35:59.684Z,14.70
2022-09-16T12:41:28.733Z,15.00
2022-09-16T12:46:57.787Z,15.30
2022-09-16T12:52:23.435Z,15.40
2022-09-16T12:57:43.986Z,15.30
2022-09-16T13:02:49.467Z,15.40
2022-09-16T13:07:55.110Z,15.60
2022-09-16T13:13:00.894Z,15.90
2022-09-16T13:18:18.669Z,16.20
2022-09-16T13:23:26.069Z,16.30
2022-09-16T13:28:38.044Z,16.70
2022-09-16T13:33:43.888Z,16.60
2022-09-16T13:38:51.630Z,16.70
2022-09-16T13:43:54.239Z,16.70
2022-09-16T13:49:10.984Z,16.60
2022-09-16T13:54:28.967Z,16.80
2022-09-16T14:00:04.233Z,16.50
2022-09-16T14:05:15.454Z,16.40
2022-09-16T14:10:40.961Z,16.70
2022-09-16T14:15:50.389Z,17.00
2022-09-16T14:21:19.902Z,17.00
2022-09-16T14:26:24.178Z,17.10
2022-09-16T14:31:31.680Z,16.80
2022-09-16T14:36:38.676Z,16.30
2022-09-16T14:41:54.414Z,16.10
2022-09-16T14:47:08.771Z,15.60
2022-09-16T14:52:25.593Z,15.50
2022-09-16T14:57:30.122Z,14.40
2022-09-16T15:02:35.498Z,13.50
2022-09-16T15:07:56.181Z,13.70
2022-09-16T15:13:10.205Z,14.00
2022-09-16T15:18:19.607Z,14.40
2022-09-16T15:23:28.364Z,14.80
2022-09-16T15:28:30.953Z,14.90
2022-09-16T15:33:40.995Z,15.20
2022-09-16T15:38:44.797Z,15.30
2022-09-16T15:43:47.915Z,15.50
2022-09-16T15:49:01.724Z,15.50
2022-09-16T15:54:14.931Z,15.30
2022-09-16T15:59:35.063Z,15.40
2022-09-16T16:04:37.592Z,15.40
2022-09-16T16:09:42.530Z,15.50
2022-09-16T16:14:46.454Z,15.50
2022-09-16T16:19:50.374Z,15.50
2022-09-16T16:24:53.478Z,15.30
2022-09-16T16:29:56.018Z,15.10
2022-09-16T16:34:58.693Z,15.00
2022-09-16T16:40:01.449Z,15.00
2022-09-16T16:45:04.378Z,15.10
2022-09-16T16:50:07.151Z,15.10
2022-09-16T16:55:10.373Z,15.00
2022-09-16T17:00:14.333Z,15.20
2022-09-16T17:05:16.810Z,15.20
2022-09-16T17:10:19.369Z,15.10
2022-09-16T17:15:22.324Z,15.20
2022-09-16T17:20:24.931Z,15.00
2022-09-16T17:25:27.777Z,14.90
2022-09-16T17:30:30.265Z,14.90
2022-09-16T17:35:32.798Z,14.90
2022-09-16T17:40:35.417Z,14.80
2022-09-16T17:45:38.044Z,14.70
2022-09-16T17:50:40.531Z,14.70
2022-09-16T17:55:43.239Z,14.70
2022-09-16T18:00:45.778Z,14.60
2022-09-16T18:05:50.077Z,14.50
2022-09-16T18:10:53.192Z,14.50
2022-09-16T18:15:55.781Z,14.40
2022-09-16T18:20:58.449Z,14.50
2022-09-16T18:26:19.286Z,14.60
2022-09-16T18:31:25.861Z,14.60
2022-09-16T18:36:30.347Z,14.60
2022-09-16T18:41:38.112Z,14.50
2022-09-16T18:46:40.686Z,14.50
2022-09-16T18:51:51.313Z,14.50
2022-09-16T18:56:59.770Z,14.50
2022-09-16T19:02:05.335Z,14.30
2022-09-16T19:07:11.599Z,13.90
2022-09-16T19:12:14.436Z,14.10
2022-09-16T19:17:17.119Z,14.20
2022-09-16T19:22:19.722Z,14.30
2022-09-16T19:27:22.306Z,14.10
2022-09-16T19:32:24.927Z,14.00
2022-09-16T19:37:27.442Z,13.90
2022-09-16T19:42:29.938Z,13.90
2022-09-16T19:47:32.498Z,13.80
2022-09-16T19:52:37.886Z,13.70
2022-09-16T19:57:40.480Z,13.70
2022-09-16T20:02:44.961Z,13.50
2022-09-16T20:07:47.546Z,13.80
2022-09-16T20:12:56.088Z,13.70
2022-09-16T20:18:01.710Z,13.70
2022-09-16T20:23:04.232Z,13.50
2022-09-16T20:28:06.798Z,13.60
2022-09-16T20:33:09.346Z,13.50
2022-09-16T20:38:11.866Z,13.50
2022-09-16T20:43:15.356Z,13.50
2022-09-16T20:48:18.125Z,13.60
2022-09-16T20:53:20.627Z,13.50
2022-09-16T20:58:23.233Z,13.30
2022-09-16T21:03:25.774Z,13.40
2022-09-16T21:08:33.238Z,13.30
2022-09-16T21:13:36.752Z,13.50
2022-09-16T21:18:40.187Z,13.30
2022-09-16T21:23:45.014Z,13.40
2022-09-16T21:28:59.286Z,13.20
2022-09-16T21:34:04.478Z,13.10
2022-09-16T21:39:08.394Z,13.30
2022-09-16T21:44:11.586Z,13.30
2022-09-16T21:49:22.751Z,13.20
2022-09-16T21:54:26.452Z,13.40
2022-09-16T21:59:29.002Z,13.30
2022-09-16T22:04:31.556Z,13.20
2022-09-16T22:09:34.057Z,13.20
2022-09-16T22:14:37.610Z,13.10
2022-09-16T22:19:40.149Z,12.90
2022-09-16T22:24:42.696Z,12.70
2022-09-16T22:29:45.254Z,13.00
2022-09-16T22:34:48.591Z,13.10
2022-09-16T22:39:51.311Z,12.90
2022-09-16T22:44:53.901Z,12.70
2022-09-16T22:49:56.437Z,12.70
2022-09-16T22:54:58.966Z,12.70
2022-09-16T23:00:02.248Z,12.70
2022-09-16T23:05:07.226Z,12.70
2022-09-16T23:10:10.776Z,13.00
2022-09-16T23:15:13.958Z,12.80
2022-09-16T23:20:17.562Z,12.90
2022-09-16T23:25:20.081Z,12.80
2022-09-16T23:30:22.706Z,13.00
2022-09-16T23:35:25.223Z,12.90
2022-09-16T23:40:28.633Z,12.90
2022-09-16T23:45:31.218Z,12.90
2022-09-16T23:50:34.238Z,12.80
2022-09-16T23:55:44.046Z,12.80
